Time;durP1;ratioP1;P1;durP2;ratioP2;P2;SDS_P1;SDS_P2;PMS_P1;PMS_P2;Temp;Humidity;BMP_temperature;BMP_pressure;BME280_temperature;BME280_humidity;BME280_pressure;Samples;Min_cycle;Max_cycle;Signal;HPM_P1;HPM_P2
2023/05/15 00:01:49;;;;;;;3.28;1.77;;;19.50;66.00;;;;;;5010909;28;20243;-65
2023/05/15 00:04:16;;;;;;;1.45;1.35;;;19.50;66.00;;;;;;5010619;28;20690;-65
2023/05/15 00:06:44;;;;;;;1.35;1.33;;;19.50;66.00;;;;;;5009845;28;20509;-65
2023/05/15 00:09:12;;;;;;;3.35;1.73;;;19.50;66.10;;;;;;5010803;28;20223;-66
2023/05/15 00:11:39;;;;;;;1.85;1.75;;;19.50;66.10;;;;;;5010412;28;20225;-66
2023/05/15 00:14:06;;;;;;;4.10;1.73;;;19.50;66.10;;;;;;5010970;28;20281;-66
2023/05/15 00:16:33;;;;;;;1.70;1.60;;;19.50;66.20;;;;;;4994172;28;20211;-66
2023/05/15 00:19:00;;;;;;;1.95;1.77;;;19.40;66.10;;;;;;5010551;28;20199;-65
2023/05/15 00:21:27;;;;;;;4.07;1.63;;;19.40;66.20;;;;;;5010999;28;20725;-66
2023/05/15 00:23:57;;;;;;;5.45;1.70;;;19.40;66.20;;;;;;4992869;28;20207;-65
2023/05/15 00:26:25;;;;;;;2.47;1.67;;;19.30;66.20;;;;;;5011255;28;20286;-66
2023/05/15 00:28:52;;;;;;;1.80;1.70;;;19.30;66.30;;;;;;5005302;28;20725;-66
2023/05/15 00:31:19;;;;;;;2.55;1.60;;;19.30;66.40;;;;;;5005546;28;20717;-66
2023/05/15 00:33:46;;;;;;;2.15;1.70;;;19.30;66.40;;;;;;5009851;28;20199;-65
2023/05/15 00:36:13;;;;;;;3.47;1.77;;;19.30;66.50;;;;;;5010120;28;20203;-66
2023/05/15 00:38:40;;;;;;;1.80;1.70;;;19.30;66.50;;;;;;5004700;28;20258;-67
2023/05/15 00:41:13;;;;;;;1.70;1.60;;;19.30;66.50;;;;;;5005206;28;20215;-65
2023/05/15 00:43:42;;;;;;;1.75;1.52;;;19.20;66.60;;;;;;5007742;28;20278;-66
2023/05/15 00:46:10;;;;;;;2.88;1.58;;;19.20;66.70;;;;;;4994860;28;20690;-65
2023/05/15 00:48:37;;;;;;;1.92;1.63;;;19.20;66.70;;;;;;5001623;28;20249;-65
2023/05/15 00:51:05;;;;;;;1.88;1.77;;;19.20;66.70;;;;;;5011472;28;20283;-66
2023/05/15 00:53:32;;;;;;;2.00;1.80;;;19.10;66.70;;;;;;5006228;28;20207;-65
2023/05/15 00:55:59;;;;;;;1.80;1.70;;;19.10;66.80;;;;;;5010800;28;20199;-66
2023/05/15 00:58:29;;;;;;;2.00;1.75;;;19.10;66.80;;;;;;4992453;28;20207;-65
2023/05/15 01:03:38;;;;;;;1.75;1.65;;;19.10;67.40;;;;;;5072396;22;20436;-67
2023/05/15 01:06:06;;;;;;;2.00;1.80;;;19.10;67.10;;;;;;5030210;28;20285;-67
2023/05/15 01:08:38;;;;;;;3.10;1.67;;;19.10;67.20;;;;;;5037726;28;20197;-67
2023/05/15 01:11:07;;;;;;;1.45;1.35;;;19.10;67.20;;;;;;5030241;28;20190;-66
2023/05/15 01:13:36;;;;;;;1.20;1.20;;;19.00;67.20;;;;;;5030230;28;20198;-67
2023/05/15 01:16:06;;;;;;;3.72;1.88;;;19.00;67.40;;;;;;5030839;28;20198;-66
2023/05/15 01:18:33;;;;;;;2.33;1.60;;;19.00;67.50;;;;;;5034691;28;20308;-66
2023/05/15 01:21:36;;;;;;;1.40;1.35;;;18.90;67.50;;;;;;5012694;28;20219;-66
2023/05/15 01:24:23;;;;;;;2.45;1.67;;;19.00;67.70;;;;;;5027408;28;20198;-66
2023/05/15 01:27:16;;;;;;;1.45;1.42;;;19.00;67.70;;;;;;5026978;28;20215;-66
2023/05/15 01:29:53;;;;;;;2.08;1.60;;;18.90;67.70;;;;;;5019011;28;20211;-66
2023/05/15 01:32:24;;;;;;;3.53;2.22;;;18.90;67.80;;;;;;5029922;28;20200;-66
2023/05/15 01:35:05;;;;;;;4.50;1.98;;;18.90;67.90;;;;;;5029498;28;20231;-66
2023/05/15 01:37:35;;;;;;;2.10;2.00;;;18.90;68.00;;;;;;5008965;28;20281;-66
2023/05/15 01:40:06;;;;;;;2.58;1.80;;;18.90;68.20;;;;;;5028777;28;20205;-67
2023/05/15 01:42:34;;;;;;;1.92;1.73;;;18.90;68.30;;;;;;5014473;28;20238;-66
2023/05/15 01:45:06;;;;;;;1.75;1.65;;;18.90;68.30;;;;;;5008768;28;20586;-66
2023/05/15 01:47:41;;;;;;;1.90;1.80;;;18.90;68.40;;;;;;5030617;28;20202;-66
2023/05/15 01:50:12;;;;;;;2.10;1.38;;;18.90;68.40;;;;;;5021059;28;20265;-66
2023/05/15 01:52:44;;;;;;;3.88;2.60;;;18.90;68.40;;;;;;5009083;28;20216;-66
2023/05/15 01:55:14;;;;;;;2.70;2.10;;;18.90;68.60;;;;;;5025343;28;20199;-66
2023/05/15 01:57:42;;;;;;;3.05;2.05;;;18.80;68.50;;;;;;5032105;28;20811;-66
2023/05/15 02:00:12;;;;;;;7.05;2.30;;;18.80;68.70;;;;;;5007476;28;20195;-66
2023/05/15 02:02:43;;;;;;;2.75;1.90;;;18.80;68.80;;;;;;5024563;28;20268;-67
2023/05/15 02:05:12;;;;;;;2.38;1.55;;;18.70;68.70;;;;;;5009064;28;20213;-66
2023/05/15 02:07:40;;;;;;;1.70;1.60;;;18.70;68.80;;;;;;5024709;28;20214;-66
2023/05/15 02:10:09;;;;;;;1.90;1.65;;;18.70;69.60;;;;;;5022170;28;20211;-66
2023/05/15 02:12:37;;;;;;;2.28;2.05;;;18.70;68.90;;;;;;5029814;28;20205;-67
2023/05/15 02:15:06;;;;;;;1.60;1.50;;;18.70;69.00;;;;;;5029838;28;20317;-67
2023/05/15 02:17:34;;;;;;;3.80;1.83;;;18.70;69.10;;;;;;5028388;28;20735;-67
2023/05/15 02:20:03;;;;;;;3.53;2.05;;;18.70;69.10;;;;;;5021585;28;20207;-67
2023/05/15 02:22:30;;;;;;;2.33;2.13;;;18.70;69.90;;;;;;5009884;28;20290;-66
2023/05/15 02:24:57;;;;;;;1.75;1.65;;;18.70;69.30;;;;;;5026245;28;20684;-66
2023/05/15 02:27:26;;;;;;;1.90;1.80;;;18.70;69.30;;;;;;5015391;28;20561;-67
2023/05/15 02:30:11;;;;;;;2.38;1.60;;;18.70;69.30;;;;;;5021496;28;20606;-67
2023/05/15 02:32:47;;;;;;;2.42;1.83;;;18.70;69.30;;;;;;5027325;28;20558;-66
2023/05/15 02:35:21;;;;;;;2.65;1.75;;;18.70;69.50;;;;;;5027361;28;20226;-66
2023/05/15 02:37:53;;;;;;;1.67;1.58;;;18.70;69.40;;;;;;5015205;28;20541;-66
2023/05/15 02:40:23;;;;;;;1.88;1.77;;;18.70;69.50;;;;;;5027619;28;20230;-66
2023/05/15 02:42:53;;;;;;;3.83;1.80;;;18.70;69.60;;;;;;5011087;28;20363;-66
2023/05/15 02:45:22;;;;;;;1.90;1.80;;;18.70;69.60;;;;;;5030277;28;20194;-66
2023/05/15 02:47:51;;;;;;;1.85;1.75;;;18.70;69.60;;;;;;5022770;28;20244;-67
2023/05/15 02:50:19;;;;;;;3.83;1.98;;;18.70;69.70;;;;;;5026138;28;20278;-66
2023/05/15 02:52:46;;;;;;;1.95;1.85;;;18.80;69.70;;;;;;5028720;28;20191;-66
2023/05/15 02:55:13;;;;;;;3.15;1.92;;;18.80;69.70;;;;;;5027220;28;20203;-67
2023/05/15 02:57:40;;;;;;;2.20;2.00;;;18.80;69.80;;;;;;5011784;28;21085;-67
2023/05/15 03:00:10;;;;;;;1.90;1.80;;;18.70;69.70;;;;;;5016273;28;20264;-67
2023/05/15 03:02:38;;;;;;;5.00;2.10;;;18.80;69.90;;;;;;5026014;28;20241;-67
2023/05/15 03:05:07;;;;;;;1.90;1.80;;;18.70;69.90;;;;;;5028501;28;20203;-67
2023/05/15 03:07:35;;;;;;;3.45;1.95;;;18.70;69.90;;;;;;5032776;28;20199;-67
2023/05/15 03:10:04;;;;;;;2.30;2.10;;;18.70;70.10;;;;;;5019087;28;20248;-67
2023/05/15 03:12:31;;;;;;;2.25;1.90;;;18.70;70.20;;;;;;5032902;28;20191;-67
2023/05/15 03:14:58;;;;;;;2.35;2.17;;;18.60;70.30;;;;;;5033301;28;20212;-67
2023/05/15 03:17:25;;;;;;;2.33;2.13;;;18.60;70.30;;;;;;5032481;28;20244;-67
2023/05/15 03:19:52;;;;;;;3.92;2.13;;;18.60;70.40;;;;;;5032699;28;20199;-67
2023/05/15 03:22:21;;;;;;;1.80;1.70;;;18.60;70.60;;;;;;5014534;28;20562;-66
2023/05/15 03:24:48;;;;;;;1.92;1.55;;;18.60;70.60;;;;;;5031536;28;20199;-66
2023/05/15 03:27:16;;;;;;;1.55;1.45;;;18.70;70.40;;;;;;5032793;28;20207;-66
2023/05/15 03:29:43;;;;;;;2.22;1.80;;;18.70;70.40;;;;;;5032546;28;20550;-66
2023/05/15 03:32:10;;;;;;;1.60;1.50;;;18.70;70.30;;;;;;5014286;28;20199;-66
2023/05/15 03:34:38;;;;;;;2.35;1.40;;;18.80;70.40;;;;;;5018094;28;20205;-66
2023/05/15 03:37:05;;;;;;;1.42;1.35;;;18.80;70.40;;;;;;5025160;28;20198;-66
2023/05/15 03:39:33;;;;;;;1.88;1.70;;;18.80;70.30;;;;;;5031921;28;20272;-66
2023/05/15 03:42:01;;;;;;;2.83;1.70;;;18.80;70.30;;;;;;5018132;28;20264;-67
2023/05/15 03:44:28;;;;;;;1.20;1.20;;;18.80;70.30;;;;;;5031819;28;20199;-66
2023/05/15 03:46:55;;;;;;;1.60;1.50;;;18.70;70.20;;;;;;5021122;28;20194;-68
2023/05/15 03:49:22;;;;;;;1.50;1.40;;;18.70;70.30;;;;;;5027084;28;20264;-66
2023/05/15 03:51:49;;;;;;;2.17;1.90;;;18.70;70.50;;;;;;5028619;28;20256;-66
2023/05/15 03:54:16;;;;;;;2.03;1.50;;;18.70;70.70;;;;;;5021090;28;20814;-65
2023/05/15 03:56:45;;;;;;;3.63;2.10;;;18.70;70.70;;;;;;5031845;28;20206;-66
2023/05/15 03:59:12;;;;;;;1.70;1.60;;;18.70;70.70;;;;;;5013902;28;20210;-66
2023/05/15 04:01:39;;;;;;;2.50;2.08;;;18.70;71.40;;;;;;5032476;28;20201;-66
2023/05/15 04:04:06;;;;;;;2.20;2.00;;;18.60;70.60;;;;;;5031520;28;20549;-66
2023/05/15 04:06:33;;;;;;;3.75;1.80;;;18.60;70.70;;;;;;5030689;28;20209;-66
2023/05/15 04:09:00;;;;;;;3.38;1.77;;;18.60;70.80;;;;;;5031295;28;20289;-66
2023/05/15 04:11:28;;;;;;;1.90;1.80;;;18.60;70.90;;;;;;5030028;28;20381;-67
2023/05/15 04:13:56;;;;;;;1.77;1.67;;;18.60;71.00;;;;;;5031869;28;20206;-67
2023/05/15 04:16:23;;;;;;;4.53;1.70;;;18.60;71.00;;;;;;5013495;28;20198;-66
2023/05/15 04:18:50;;;;;;;1.90;1.77;;;18.60;71.00;;;;;;5031472;28;20271;-66
2023/05/15 04:21:17;;;;;;;1.80;1.70;;;18.70;71.00;;;;;;5031443;28;20268;-67
2023/05/15 04:23:44;;;;;;;2.03;1.77;;;18.60;70.80;;;;;;5030942;28;20215;-66
2023/05/15 04:26:12;;;;;;;3.28;1.55;;;18.70;71.00;;;;;;5013306;28;20586;-66
2023/05/15 04:28:38;;;;;;;2.55;1.67;;;18.60;71.10;;;;;;5028426;28;20289;-66
2023/05/15 04:31:07;;;;;;;1.95;1.85;;;18.60;71.20;;;;;;5016184;28;20191;-66
2023/05/15 04:33:34;;;;;;;1.73;1.63;;;18.60;71.30;;;;;;5031300;28;20270;-66
2023/05/15 04:36:02;;;;;;;1.52;1.42;;;18.60;71.40;;;;;;5025681;28;20222;-66
2023/05/15 04:38:29;;;;;;;9.80;1.50;;;18.60;71.50;;;;;;5023130;28;20207;-66
2023/05/15 04:40:56;;;;;;;1.60;1.45;;;18.50;72.30;;;;;;5011350;28;20624;-67
2023/05/15 04:43:23;;;;;;;1.58;1.50;;;18.60;71.70;;;;;;5033157;28;20317;-67
2023/05/15 04:45:50;;;;;;;2.15;1.50;;;18.60;71.80;;;;;;5029700;28;20246;-66
2023/05/15 04:48:19;;;;;;;1.90;1.80;;;18.70;71.80;;;;;;5031741;28;20202;-67
2023/05/15 04:50:46;;;;;;;1.40;1.30;;;18.70;71.90;;;;;;5033445;28;20197;-67
2023/05/15 04:53:13;;;;;;;3.28;1.45;;;18.70;71.90;;;;;;5030217;28;20530;-67
2023/05/15 04:55:40;;;;;;;2.20;1.52;;;18.70;71.90;;;;;;5029150;28;20306;-67
2023/05/15 04:58:07;;;;;;;1.98;1.88;;;18.70;72.00;;;;;;5031296;28;20195;-66
2023/05/15 05:00:34;;;;;;;1.95;1.60;;;18.70;72.00;;;;;;5030336;28;20252;-66
2023/05/15 05:03:01;;;;;;;1.60;1.50;;;18.70;72.10;;;;;;5017289;28;20775;-66
2023/05/15 05:05:30;;;;;;;4.05;2.15;;;18.80;72.20;;;;;;5030502;28;20206;-66
2023/05/15 05:07:57;;;;;;;2.22;1.80;;;18.80;72.30;;;;;;5028174;28;20218;-66
2023/05/15 05:10:24;;;;;;;5.70;2.08;;;18.80;72.30;;;;;;5015722;28;20207;-67
2023/05/15 05:12:51;;;;;;;2.15;1.85;;;18.70;72.20;;;;;;5031052;28;20273;-66
2023/05/15 05:15:18;;;;;;;1.75;1.65;;;18.80;72.30;;;;;;5030039;28;20835;-66
2023/05/15 05:17:46;;;;;;;2.03;1.92;;;18.80;72.40;;;;;;5030740;28;20194;-66
2023/05/15 05:20:14;;;;;;;2.05;1.70;;;18.80;72.50;;;;;;5029687;28;20203;-67
2023/05/15 05:22:42;;;;;;;1.77;1.67;;;18.80;73.40;;;;;;5029979;28;20373;-67
2023/05/15 05:25:10;;;;;;;3.72;1.75;;;18.80;72.70;;;;;;5029814;28;20249;-66
2023/05/15 05:27:37;;;;;;;2.22;2.03;;;18.90;72.80;;;;;;5015063;28;20294;-66
2023/05/15 05:30:05;;;;;;;2.08;1.98;;;18.80;72.80;;;;;;5013508;28;20557;-67
2023/05/15 05:32:32;;;;;;;2.33;2.00;;;18.80;72.70;;;;;;5030079;28;20308;-66
2023/05/15 05:34:59;;;;;;;2.22;2.10;;;18.90;73.00;;;;;;5030344;28;20596;-66
2023/05/15 05:37:26;;;;;;;8.18;2.22;;;18.80;73.00;;;;;;5025261;28;20725;-66
2023/05/15 05:39:57;;;;;;;2.80;2.00;;;18.90;73.30;;;;;;5031206;28;20209;-66
2023/05/15 05:42:24;;;;;;;3.33;1.90;;;18.80;73.60;;;;;;5029661;28;20794;-65
2023/05/15 05:44:51;;;;;;;2.40;2.20;;;18.80;73.40;;;;;;5030932;28;20289;-67
2023/05/15 05:47:18;;;;;;;2.80;2.13;;;18.80;73.50;;;;;;5031039;28;20194;-66
2023/05/15 05:49:46;;;;;;;5.90;3.53;;;18.80;73.70;;;;;;5014096;28;20284;-67
2023/05/15 05:52:14;;;;;;;7.43;3.03;;;18.80;73.90;;;;;;5030705;28;20199;-67
2023/05/15 05:54:41;;;;;;;2.45;2.22;;;18.80;74.30;;;;;;5027321;28;20268;-67
2023/05/15 05:57:10;;;;;;;3.97;2.70;;;18.70;74.10;;;;;;5018711;28;20205;-66
2023/05/15 05:59:37;;;;;;;2.83;2.60;;;18.70;74.40;;;;;;5027457;28;20338;-66
2023/05/15 06:02:05;;;;;;;4.03;2.50;;;18.70;74.50;;;;;;5022150;28;20202;-67
2023/05/15 06:04:33;;;;;;;3.83;2.33;;;18.70;74.60;;;;;;5026561;28;20768;-66
2023/05/15 06:07:00;;;;;;;2.33;2.13;;;18.70;74.60;;;;;;5033434;28;20243;-67
2023/05/15 06:09:27;;;;;;;3.28;2.33;;;18.80;74.70;;;;;;5021249;28;20204;-67
2023/05/15 06:11:54;;;;;;;2.22;2.00;;;18.90;74.80;;;;;;5025243;28;20198;-66
2023/05/15 06:14:22;;;;;;;1.90;1.80;;;18.80;74.70;;;;;;5028390;28;20501;-66
2023/05/15 06:16:50;;;;;;;2.10;2.00;;;18.80;74.80;;;;;;5016704;28;20206;-67
2023/05/15 06:19:17;;;;;;;1.80;1.70;;;18.80;74.90;;;;;;5030005;28;20203;-67
2023/05/15 06:21:44;;;;;;;1.65;1.55;;;18.80;74.90;;;;;;5037257;28;20244;-67
2023/05/15 06:24:11;;;;;;;2.03;1.77;;;18.80;75.10;;;;;;5016051;28;20214;-66
2023/05/15 06:26:38;;;;;;;2.20;2.00;;;18.80;75.10;;;;;;5030012;28;20194;-66
2023/05/15 06:29:05;;;;;;;2.30;2.10;;;18.80;75.30;;;;;;5019422;28;21292;-66
2023/05/15 06:31:34;;;;;;;2.22;2.10;;;18.80;75.60;;;;;;5006922;28;20206;-67
2023/05/15 06:34:01;;;;;;;4.50;3.47;;;18.80;75.70;;;;;;5031244;28;20191;-67
2023/05/15 06:36:28;;;;;;;6.75;3.92;;;18.80;76.40;;;;;;5013086;28;20234;-67
2023/05/15 06:38:56;;;;;;;5.90;4.10;;;18.70;77.40;;;;;;5033818;28;20207;-67
2023/05/15 06:41:23;;;;;;;8.13;3.30;;;18.70;75.70;;;;;;5032010;28;20612;-67
2023/05/15 06:43:50;;;;;;;2.58;2.38;;;18.70;71.20;;;;;;5016563;28;20386;-67
2023/05/15 06:46:17;;;;;;;5.20;2.42;;;18.80;70.00;;;;;;5016768;28;20620;-67
2023/05/15 06:48:47;;;;;;;3.28;2.10;;;18.90;70.00;;;;;;5027500;28;20207;-67
2023/05/15 06:51:14;;;;;;;2.97;1.80;;;19.00;69.10;;;;;;5031224;28;20608;-67
2023/05/15 06:53:41;;;;;;;1.63;1.52;;;19.10;69.10;;;;;;5034098;28;20225;-67
2023/05/15 06:56:09;;;;;;;3.80;2.20;;;19.20;69.20;;;;;;5030704;28;20281;-67
2023/05/15 06:58:36;;;;;;;3.13;2.45;;;19.30;69.10;;;;;;5031918;28;20628;-67
2023/05/15 07:01:05;;;;;;;2.55;2.30;;;19.30;68.50;;;;;;5017313;28;20296;-67
2023/05/15 07:03:32;;;;;;;3.63;2.35;;;19.40;68.10;;;;;;5031116;28;20321;-66
2023/05/15 07:06:00;;;;;;;2.17;1.70;;;19.40;68.00;;;;;;5030103;28;20199;-67
2023/05/15 07:08:27;;;;;;;2.42;2.20;;;19.50;68.00;;;;;;5020954;28;20195;-67
2023/05/15 07:10:54;;;;;;;3.40;2.60;;;19.50;67.90;;;;;;5029561;28;20210;-67
2023/05/15 07:13:22;;;;;;;5.72;2.50;;;19.50;67.80;;;;;;5032183;28;20195;-67
2023/05/15 07:15:49;;;;;;;2.83;2.58;;;19.60;67.50;;;;;;5036664;28;20195;-67
2023/05/15 07:18:16;;;;;;;2.10;2.00;;;19.60;67.20;;;;;;5031228;28;20230;-67
2023/05/15 07:20:43;;;;;;;2.28;1.90;;;19.60;66.70;;;;;;5031273;28;20202;-67
2023/05/15 07:23:11;;;;;;;2.63;1.90;;;19.60;66.40;;;;;;5030481;28;20570;-67
2023/05/15 07:25:38;;;;;;;1.80;1.70;;;19.60;66.40;;;;;;5031269;28;20632;-67
2023/05/15 07:28:05;;;;;;;2.00;1.90;;;19.60;66.40;;;;;;5032690;28;20221;-67
2023/05/15 07:30:32;;;;;;;1.88;1.77;;;19.60;66.30;;;;;;5033193;28;20234;-67
2023/05/15 07:32:59;;;;;;;1.98;1.83;;;19.70;66.40;;;;;;5028173;28;20261;-67
2023/05/15 07:35:26;;;;;;;2.83;1.60;;;19.70;66.40;;;;;;5032576;28;20658;-67
2023/05/15 07:37:53;;;;;;;1.83;1.65;;;19.70;66.40;;;;;;5021803;28;20230;-67
2023/05/15 07:40:22;;;;;;;2.42;2.22;;;19.70;66.70;;;;;;5034877;28;20222;-67
2023/05/15 07:42:49;;;;;;;7.15;2.10;;;19.70;66.10;;;;;;5030196;28;20285;-67
2023/05/15 07:45:16;;;;;;;2.08;1.98;;;19.70;64.90;;;;;;5030753;28;20286;-67
2023/05/15 07:47:46;;;;;;;1.63;1.52;;;19.70;64.60;;;;;;5013145;28;20293;-66
2023/05/15 07:50:13;;;;;;;1.60;1.50;;;19.90;64.80;;;;;;5030744;28;20409;-66
2023/05/15 07:52:41;;;;;;;1.45;1.23;;;19.90;64.90;;;;;;5030190;28;20198;-66
2023/05/15 07:55:09;;;;;;;1.40;1.30;;;19.90;65.10;;;;;;5029795;28;20218;-68
2023/05/15 07:57:39;;;;;;;1.33;1.23;;;19.90;65.30;;;;;;5030585;28;20198;-67
2023/05/15 08:00:11;;;;;;;1.20;1.10;;;19.90;66.30;;;;;;5031429;28;20198;-66
2023/05/15 08:02:38;;;;;;;1.50;1.40;;;19.90;65.80;;;;;;5022754;28;20234;-67
2023/05/15 08:05:06;;;;;;;4.18;2.22;;;19.90;66.00;;;;;;5029863;28;20399;-67
2023/05/15 08:07:34;;;;;;;4.43;2.05;;;19.90;66.20;;;;;;5030094;28;20618;-67
2023/05/15 08:10:03;;;;;;;6.07;2.47;;;19.90;67.10;;;;;;5028541;28;20751;-68
2023/05/15 08:12:30;;;;;;;3.08;2.20;;;19.90;66.50;;;;;;5029778;28;20195;-67
2023/05/15 08:14:58;;;;;;;2.92;2.72;;;19.90;66.40;;;;;;5006796;28;20209;-65
2023/05/15 08:17:25;;;;;;;2.20;2.10;;;19.90;65.90;;;;;;5026918;28;20760;-67
2023/05/15 08:19:53;;;;;;;1.90;1.80;;;19.90;65.60;;;;;;5011619;28;20190;-67
2023/05/15 08:22:20;;;;;;;7.32;2.75;;;19.90;65.40;;;;;;5030612;28;20232;-67
2023/05/15 08:24:47;;;;;;;7.90;2.53;;;19.90;65.30;;;;;;5027233;28;20233;-67
2023/05/15 08:27:14;;;;;;;3.65;2.08;;;19.90;63.30;;;;;;5030541;28;20550;-66
2023/05/15 08:29:41;;;;;;;2.40;2.20;;;19.90;63.10;;;;;;5029748;28;20657;-66
2023/05/15 08:32:10;;;;;;;1.70;1.60;;;19.90;63.10;;;;;;5011856;28;20218;-67
2023/05/15 08:34:37;;;;;;;1.33;1.30;;;19.90;63.20;;;;;;5029166;28;20195;-67
2023/05/15 08:37:05;;;;;;;3.60;1.90;;;19.90;63.20;;;;;;5012233;28;20206;-67
2023/05/15 08:39:33;;;;;;;2.88;2.10;;;20.00;63.10;;;;;;5028819;28;20199;-66
2023/05/15 08:42:06;;;;;;;2.55;2.22;;;20.00;63.00;;;;;;5029308;28;20199;-67
2023/05/15 08:44:33;;;;;;;2.20;2.00;;;20.00;63.20;;;;;;5029516;28;20207;-67
2023/05/15 08:47:01;;;;;;;2.45;2.10;;;20.00;63.20;;;;;;5029768;28;20264;-66
2023/05/15 08:49:39;;;;;;;1.88;1.77;;;20.00;63.20;;;;;;5029322;28;20210;-67
2023/05/15 08:52:07;;;;;;;1.98;1.60;;;20.00;63.40;;;;;;5030188;28;20230;-67
2023/05/15 08:54:35;;;;;;;2.08;1.90;;;19.90;63.60;;;;;;5023180;28;20187;-67
2023/05/15 08:57:03;;;;;;;2.17;1.95;;;19.90;63.80;;;;;;5029130;28;20649;-67
2023/05/15 08:59:33;;;;;;;1.92;1.83;;;19.90;63.80;;;;;;5030191;28;20194;-66
2023/05/15 09:02:00;;;;;;;2.25;2.08;;;19.90;64.00;;;;;;5011021;28;20717;-66
2023/05/15 09:04:28;;;;;;;3.92;2.35;;;19.90;64.20;;;;;;5024899;28;20218;-66
2023/05/15 09:06:58;;;;;;;2.70;2.47;;;19.90;64.20;;;;;;5028796;28;20202;-66
2023/05/15 09:09:28;;;;;;;3.03;2.03;;;19.90;64.20;;;;;;5009905;28;20202;-66
2023/05/15 09:11:56;;;;;;;2.17;1.98;;;19.90;64.30;;;;;;5029108;28;20199;-67
2023/05/15 09:14:23;;;;;;;2.22;2.03;;;19.90;64.40;;;;;;5029070;28;20221;-67
2023/05/15 09:16:52;;;;;;;1.58;1.48;;;19.90;64.40;;;;;;5023062;28;20202;-67
2023/05/15 09:19:22;;;;;;;3.63;1.40;;;20.00;64.50;;;;;;5027707;28;20194;-67
2023/05/15 09:21:50;;;;;;;1.50;1.50;;;20.00;64.60;;;;;;5029438;28;20199;-66
2023/05/15 09:24:23;;;;;;;4.72;2.10;;;20.00;64.80;;;;;;5025962;28;20301;-67
2023/05/15 09:27:02;;;;;;;3.38;2.10;;;20.10;65.00;;;;;;5031859;28;20221;-67
2023/05/15 09:29:31;;;;;;;8.82;3.30;;;20.10;64.80;;;;;;5029069;28;20278;-67
2023/05/15 09:32:02;;;;;;;2.38;2.17;;;20.10;64.80;;;;;;5027418;28;20202;-67
2023/05/15 09:34:30;;;;;;;2.00;1.90;;;20.10;64.90;;;;;;5025348;28;20195;-66
2023/05/15 09:36:57;;;;;;;3.03;2.00;;;20.10;64.80;;;;;;5027511;28;20242;-65
2023/05/15 09:39:25;;;;;;;3.67;2.00;;;20.10;64.80;;;;;;5028349;28;20499;-67
2023/05/15 09:41:53;;;;;;;2.30;2.20;;;20.10;64.90;;;;;;5027281;28;20202;-67
2023/05/15 09:44:24;;;;;;;2.63;2.42;;;20.10;65.00;;;;;;5028134;28;20685;-66
2023/05/15 09:46:56;;;;;;;2.50;2.30;;;20.10;65.20;;;;;;5019625;28;20662;-66
2023/05/15 09:49:23;;;;;;;2.63;2.42;;;20.10;65.90;;;;;;5028251;28;20254;-66
2023/05/15 09:51:51;;;;;;;2.75;2.55;;;20.00;64.80;;;;;;5029354;28;20199;-66
2023/05/15 09:54:18;;;;;;;2.53;2.33;;;20.00;64.70;;;;;;5028398;28;20202;-66
2023/05/15 09:56:47;;;;;;;3.05;2.85;;;20.00;64.70;;;;;;5029448;28;20198;-68
2023/05/15 09:59:16;;;;;;;1.98;1.88;;;20.00;64.60;;;;;;5028360;28;20470;-68
2023/05/15 10:01:44;;;;;;;2.40;2.30;;;20.00;64.70;;;;;;5028682;28;20205;-68
2023/05/15 10:04:12;;;;;;;2.22;2.10;;;20.00;64.80;;;;;;5008059;28;20245;-68
2023/05/15 10:06:40;;;;;;;3.28;2.40;;;20.00;64.90;;;;;;5018956;28;20490;-68
2023/05/15 10:09:09;;;;;;;3.67;2.55;;;20.00;65.10;;;;;;5007998;28;20210;-68
2023/05/15 10:11:38;;;;;;;2.67;2.47;;;19.90;65.20;;;;;;5032471;28;20689;-68
2023/05/15 10:14:08;;;;;;;8.52;3.30;;;19.90;65.30;;;;;;5024749;28;20195;-68
2023/05/15 10:16:37;;;;;;;2.80;2.60;;;19.90;65.50;;;;;;5032847;28;20202;-68
2023/05/15 10:19:06;;;;;;;2.72;2.55;;;19.90;65.60;;;;;;5031756;28;20202;-68
2023/05/15 10:21:35;;;;;;;3.20;2.88;;;19.80;65.80;;;;;;5025296;28;20191;-68
2023/05/15 10:24:03;;;;;;;3.83;2.97;;;19.80;66.20;;;;;;5017585;28;20229;-68
2023/05/15 10:26:37;;;;;;;4.95;3.08;;;19.70;66.40;;;;;;5031056;28;20198;-68
2023/05/15 10:29:08;;;;;;;7.05;2.95;;;19.60;66.70;;;;;;5031337;28;20730;-68
2023/05/15 10:31:36;;;;;;;2.67;2.47;;;19.50;67.40;;;;;;5028632;28;20206;-68
2023/05/15 10:34:03;;;;;;;1.95;1.85;;;19.50;67.80;;;;;;5031084;28;20637;-69
2023/05/15 10:36:32;;;;;;;2.38;2.25;;;19.40;68.10;;;;;;5031071;28;20205;-69
2023/05/15 10:39:00;;;;;;;4.10;2.40;;;19.30;68.80;;;;;;5025317;28;20248;-67
2023/05/15 10:41:29;;;;;;;2.97;2.58;;;19.30;69.50;;;;;;5013642;28;20210;-67
2023/05/15 10:43:59;;;;;;;2.58;2.17;;;19.30;69.90;;;;;;5032102;28;20309;-67
2023/05/15 10:46:29;;;;;;;2.65;2.00;;;19.20;70.40;;;;;;5032059;28;20209;-67
2023/05/15 10:48:57;;;;;;;3.60;1.70;;;19.20;70.50;;;;;;5026013;28;20256;-67
2023/05/15 10:51:26;;;;;;;2.15;1.58;;;19.20;70.70;;;;;;5031864;28;20225;-67
2023/05/15 10:53:54;;;;;;;1.80;1.70;;;19.20;70.90;;;;;;5031630;28;20285;-67
2023/05/15 10:56:21;;;;;;;1.55;1.38;;;19.30;71.50;;;;;;5013317;28;20206;-66
2023/05/15 10:58:49;;;;;;;1.48;1.38;;;19.30;71.90;;;;;;5014010;28;20207;-67
2023/05/15 11:01:29;;;;;;;2.67;1.38;;;19.50;72.00;;;;;;5030781;28;20202;-68
2023/05/15 11:04:09;;;;;;;1.30;1.20;;;19.60;71.80;;;;;;5024617;28;20301;-67
2023/05/15 11:06:37;;;;;;;1.20;1.17;;;19.70;71.50;;;;;;5014448;28;20210;-66
2023/05/15 11:09:33;;;;;;;1.75;1.63;;;19.90;71.40;;;;;;5028340;28;20191;-67
2023/05/15 11:12:02;;;;;;;1.40;1.30;;;20.10;71.10;;;;;;5028522;28;20554;-67
2023/05/15 11:14:32;;;;;;;2.03;1.40;;;20.20;70.70;;;;;;5032568;28;20229;-66
2023/05/15 11:17:03;;;;;;;1.10;1.10;;;20.40;71.00;;;;;;5032095;28;20445;-67
2023/05/15 11:19:52;;;;;;;1.77;1.30;;;20.40;70.30;;;;;;5031475;28;20271;-67
2023/05/15 11:22:20;;;;;;;0.98;0.98;;;20.50;70.30;;;;;;5031129;28;20203;-67
2023/05/15 11:24:52;;;;;;;1.02;1.02;;;20.50;70.30;;;;;;5029680;28;20296;-67
2023/05/15 11:27:21;;;;;;;1.20;1.20;;;20.60;70.10;;;;;;5031378;28;20214;-67
2023/05/15 11:30:13;;;;;;;2.13;0.90;;;20.60;70.00;;;;;;5031059;28;20281;-67
2023/05/15 11:32:50;;;;;;;1.60;1.50;;;20.70;69.90;;;;;;5024046;28;20190;-67
2023/05/15 11:35:23;;;;;;;1.38;1.38;;;20.70;69.70;;;;;;5029630;28;20631;-67
2023/05/15 11:37:52;;;;;;;1.15;1.15;;;20.80;69.60;;;;;;5026795;28;20215;-67
2023/05/15 11:40:22;;;;;;;1.20;1.20;;;20.80;69.50;;;;;;5026603;28;20697;-68
2023/05/15 11:43:04;;;;;;;1.00;1.00;;;20.80;69.50;;;;;;5031062;28;20198;-69
2023/05/15 11:45:32;;;;;;;1.20;1.10;;;20.70;69.60;;;;;;5027891;28;20210;-69
2023/05/15 11:48:03;;;;;;;1.00;1.00;;;20.50;69.70;;;;;;5030077;28;20195;-68
2023/05/15 11:50:32;;;;;;;1.20;1.20;;;20.40;70.00;;;;;;5030931;28;20300;-69
2023/05/15 11:53:02;;;;;;;2.33;1.20;;;20.30;70.40;;;;;;5030175;28;20207;-69
2023/05/15 11:55:31;;;;;;;0.95;0.95;;;20.20;70.80;;;;;;5030221;28;20202;-69
2023/05/15 11:57:59;;;;;;;1.10;1.00;;;20.00;70.90;;;;;;5013152;28;20218;-69
2023/05/15 12:00:26;;;;;;;1.40;1.20;;;19.90;71.10;;;;;;5013545;28;20214;-69
2023/05/15 12:02:53;;;;;;;1.35;1.25;;;19.90;71.50;;;;;;5012633;28;20291;-70
2023/05/15 12:05:24;;;;;;;1.27;1.17;;;19.90;71.80;;;;;;5025720;28;20213;-69
2023/05/15 12:07:51;;;;;;;1.17;1.10;;;19.90;72.00;;;;;;5029787;28;20682;-70
2023/05/15 12:10:18;;;;;;;1.67;1.20;;;19.80;72.10;;;;;;5029242;28;20202;-69
2023/05/15 12:12:46;;;;;;;1.00;1.00;;;19.80;72.30;;;;;;5011781;28;20344;-70
2023/05/15 12:15:15;;;;;;;0.95;0.95;;;19.80;72.50;;;;;;5030007;28;20209;-70
2023/05/15 12:17:43;;;;;;;1.10;1.10;;;19.70;72.60;;;;;;5029955;28;20230;-69
2023/05/15 12:20:15;;;;;;;1.17;1.10;;;19.70;73.70;;;;;;5029668;28;20190;-70
2023/05/15 12:22:43;;;;;;;1.20;1.10;;;19.70;73.10;;;;;;5029781;28;20601;-70
2023/05/15 12:25:12;;;;;;;1.45;1.35;;;19.70;73.30;;;;;;5013483;28;20252;-70
2023/05/15 12:27:39;;;;;;;1.05;1.05;;;19.70;73.60;;;;;;5021129;28;20203;-70
2023/05/15 12:30:08;;;;;;;0.90;0.90;;;19.70;74.10;;;;;;5028983;28;20206;-70
2023/05/15 12:32:36;;;;;;;1.40;1.20;;;19.70;73.90;;;;;;5013421;28;20633;-70
2023/05/15 12:35:05;;;;;;;1.05;1.05;;;19.60;74.20;;;;;;5025317;28;20195;-70
2023/05/15 12:37:34;;;;;;;1.50;1.05;;;19.60;74.40;;;;;;5013597;28;20559;-70
2023/05/15 12:40:08;;;;;;;2.00;1.48;;;19.50;74.70;;;;;;5028372;28;20209;-69
2023/05/15 12:42:40;;;;;;;1.20;1.10;;;19.50;75.40;;;;;;5026196;28;20194;-69
2023/05/15 12:45:13;;;;;;;1.40;1.30;;;19.30;75.70;;;;;;5031269;28;20701;-69
2023/05/15 12:47:41;;;;;;;1.70;1.60;;;19.20;76.00;;;;;;5014946;28;20223;-70
2023/05/15 12:50:15;;;;;;;2.78;1.80;;;19.20;76.60;;;;;;5029126;28;20245;-69
2023/05/15 12:52:47;;;;;;;1.80;1.70;;;19.10;77.00;;;;;;5030590;28;20243;-69
2023/05/15 12:55:23;;;;;;;1.98;1.77;;;19.10;77.30;;;;;;5028570;28;20740;-69
2023/05/15 12:57:50;;;;;;;2.33;2.15;;;19.00;77.70;;;;;;5026292;28;20249;-69
2023/05/15 13:00:20;;;;;;;4.13;2.80;;;19.00;78.00;;;;;;5028879;28;20214;-69